createdAt,value
2018-04-29T00:02:12.612Z,8.70
2018-04-29T00:04:40.141Z,8.70
2018-04-29T00:07:07.645Z,8.70
2018-04-29T00:09:35.179Z,8.70
2018-04-29T00:12:03.430Z,8.80
2018-04-29T00:14:30.914Z,8.80
2018-04-29T00:16:58.447Z,8.80
2018-04-29T00:19:26.439Z,8.80
2018-04-29T00:21:53.948Z,8.70
2018-04-29T00:24:21.469Z,8.60
2018-04-29T00:26:48.968Z,8.60
2018-04-29T00:29:16.839Z,8.60
2018-04-29T00:31:44.364Z,8.50
2018-04-29T00:34:11.898Z,8.50
2018-04-29T00:36:39.370Z,8.40
2018-04-29T00:39:06.886Z,8.50
2018-04-29T00:41:35.142Z,8.50
2018-04-29T00:44:02.692Z,8.50
2018-04-29T00:46:30.950Z,8.40
2018-04-29T00:48:58.433Z,8.30
2018-04-29T00:51:37.747Z,8.40
2018-04-29T00:54:05.291Z,8.30
2018-04-29T00:56:32.804Z,8.20
2018-04-29T00:59:00.319Z,8.20
2018-04-29T01:01:27.782Z,8.20
2018-04-29T01:03:55.242Z,8.20
2018-04-29T01:06:22.774Z,8.20
2018-04-29T01:08:50.252Z,8.20
2018-04-29T01:11:17.779Z,8.20
2018-04-29T01:13:45.300Z,8.10
2018-04-29T01:16:12.799Z,8.10
2018-04-29T01:18:40.323Z,8.20
2018-04-29T01:21:07.848Z,8.20
2018-04-29T01:23:35.371Z,8.20
2018-04-29T01:26:02.944Z,8.10
2018-04-29T01:28:30.457Z,8.10
2018-04-29T01:30:57.953Z,8.00
2018-04-29T01:33:25.443Z,8.10
2018-04-29T01:35:52.967Z,8.10
2018-04-29T01:38:20.481Z,8.20
2018-04-29T01:40:48.016Z,8.20
2018-04-29T01:43:15.515Z,8.30
2018-04-29T01:45:43.807Z,8.30
2018-04-29T01:48:11.295Z,8.20
2018-04-29T01:50:38.764Z,8.30
2018-04-29T01:53:06.287Z,8.40
2018-04-29T01:55:33.808Z,8.50
2018-04-29T01:58:01.290Z,8.70
2018-04-29T02:00:28.755Z,8.90
2018-04-29T02:02:56.259Z,8.70
2018-04-29T02:05:23.737Z,8.80
2018-04-29T02:07:51.272Z,8.80
2018-04-29T02:10:18.834Z,8.90
2018-04-29T02:12:46.317Z,9.00
2018-04-29T02:15:14.650Z,9.10
2018-04-29T02:17:42.131Z,9.10
2018-04-29T02:20:09.605Z,9.20
2018-04-29T02:22:37.874Z,9.00
2018-04-29T02:25:05.339Z,9.00
2018-04-29T02:27:33.631Z,8.90
2018-04-29T02:30:01.860Z,8.90
2018-04-29T02:32:29.393Z,8.90
2018-04-29T02:34:56.854Z,8.90
2018-04-29T02:37:24.347Z,9.00
2018-04-29T02:39:51.857Z,9.00
2018-04-29T02:42:19.363Z,9.00
2018-04-29T02:44:46.852Z,9.10
2018-04-29T02:47:14.397Z,9.10
2018-04-29T02:49:42.638Z,9.20
2018-04-29T02:52:10.191Z,9.20
2018-04-29T02:54:37.735Z,9.20
2018-04-29T02:57:05.225Z,9.20
2018-04-29T02:59:32.694Z,9.10
2018-04-29T03:02:00.201Z,9.00
2018-04-29T03:04:27.733Z,9.00
2018-04-29T03:06:55.213Z,8.90
2018-04-29T03:09:22.740Z,8.80
2018-04-29T03:11:51.023Z,8.70
2018-04-29T03:14:19.332Z,8.60
2018-04-29T03:16:46.847Z,8.60
2018-04-29T03:19:15.106Z,8.50
2018-04-29T03:21:42.582Z,8.50
2018-04-29T03:24:10.839Z,8.50
2018-04-29T03:26:38.310Z,8.50
2018-04-29T03:29:06.554Z,8.40
2018-04-29T03:31:34.054Z,8.40
2018-04-29T03:34:01.592Z,8.50
2018-04-29T03:36:29.109Z,8.50
2018-04-29T03:38:56.628Z,8.50
2018-04-29T03:41:24.873Z,8.50
2018-04-29T03:43:52.362Z,8.50
2018-04-29T03:46:20.677Z,8.50
2018-04-29T03:48:48.160Z,8.50
2018-04-29T03:51:15.713Z,8.50
2018-04-29T03:53:43.202Z,8.40
2018-04-29T03:56:11.496Z,8.40
2018-04-29T03:58:50.751Z,8.40
2018-04-29T04:01:30.114Z,8.50
2018-04-29T04:04:00.383Z,8.50
2018-04-29T04:06:27.915Z,8.50
2018-04-29T04:08:55.411Z,8.50
2018-04-29T04:11:22.929Z,8.50
2018-04-29T04:13:50.456Z,8.40
2018-04-29T04:16:17.957Z,8.50
2018-04-29T04:18:46.226Z,8.50
2018-04-29T04:21:13.722Z,8.50
2018-04-29T04:23:41.240Z,8.50
2018-04-29T04:26:08.696Z,8.40
2018-04-29T04:28:36.249Z,8.40
2018-04-29T04:31:03.780Z,8.40
2018-04-29T04:33:31.253Z,8.50
2018-04-29T04:35:58.727Z,8.60
2018-04-29T04:38:26.202Z,8.60
2018-04-29T04:40:54.458Z,8.80
2018-04-29T04:43:21.995Z,8.80
2018-04-29T04:45:49.544Z,9.00
2018-04-29T04:48:17.778Z,9.40
2018-04-29T04:50:45.296Z,9.40
2018-04-29T04:53:13.601Z,9.90
2018-04-29T04:55:41.858Z,10.10
2018-04-29T04:58:09.333Z,10.00
2018-04-29T05:00:37.649Z,10.40
2018-04-29T05:03:05.130Z,10.40
2018-04-29T05:05:32.649Z,10.80
2018-04-29T05:08:00.151Z,11.30
2018-04-29T05:10:27.674Z,11.80
2018-04-29T05:12:55.148Z,12.20
2018-04-29T05:15:22.672Z,12.60
2018-04-29T05:17:50.161Z,12.90
2018-04-29T05:20:17.639Z,13.20
2018-04-29T05:22:45.119Z,13.60
2018-04-29T05:25:13.445Z,15.20
2018-04-29T05:27:40.967Z,15.20
2018-04-29T05:30:08.452Z,15.90
2018-04-29T05:32:35.964Z,16.60
2018-04-29T05:35:03.467Z,16.90
2018-04-29T05:37:31.004Z,17.00
2018-04-29T05:39:58.550Z,17.50
2018-04-29T05:42:26.813Z,17.60
2018-04-29T05:44:54.463Z,17.60
2018-04-29T05:47:22.026Z,18.40
2018-04-29T05:49:49.819Z,19.40
2018-04-29T05:52:17.271Z,20.10
2018-04-29T05:54:45.607Z,19.80
2018-04-29T05:57:13.092Z,18.90
2018-04-29T05:59:40.664Z,17.40
2018-04-29T06:02:08.931Z,15.10
2018-04-29T06:04:37.227Z,14.70
2018-04-29T06:07:04.711Z,14.70
2018-04-29T06:09:32.197Z,14.40
2018-04-29T06:11:59.717Z,14.30
2018-04-29T06:14:27.214Z,14.50
2018-04-29T06:16:54.735Z,16.30
2018-04-29T06:19:22.256Z,18.90
2018-04-29T06:21:50.543Z,23.50
2018-04-29T06:24:18.839Z,24.50
2018-04-29T06:26:46.351Z,24.50
2018-04-29T06:29:13.894Z,25.30
2018-04-29T06:31:41.436Z,26.00
2018-04-29T06:34:08.973Z,26.80
2018-04-29T06:36:36.434Z,27.60
2018-04-29T06:39:03.927Z,27.70
2018-04-29T06:41:31.415Z,27.50
2018-04-29T06:43:59.712Z,28.10
2018-04-29T06:46:27.300Z,28.10
2018-04-29T06:48:54.817Z,28.60
2018-04-29T06:51:23.075Z,29.10
2018-04-29T06:53:51.351Z,29.80
2018-04-29T06:56:18.856Z,29.70
2018-04-29T06:58:46.425Z,30.40
2018-04-29T07:01:13.965Z,31.00
2018-04-29T07:03:41.479Z,31.40
2018-04-29T07:06:09.022Z,31.70
2018-04-29T07:08:36.538Z,32.10
2018-04-29T07:11:04.118Z,32.40
2018-04-29T07:13:31.645Z,32.70
2018-04-29T07:15:59.150Z,33.00
2018-04-29T07:18:26.683Z,33.00
2018-04-29T07:20:54.203Z,32.80
2018-04-29T07:23:22.494Z,32.00
2018-04-29T07:25:50.000Z,31.90
2018-04-29T07:28:17.518Z,32.20
2018-04-29T07:30:45.049Z,32.50
2018-04-29T07:33:13.313Z,33.10
2018-04-29T07:35:41.566Z,32.90
2018-04-29T07:38:09.117Z,32.90
2018-04-29T07:40:36.617Z,33.00
2018-04-29T07:43:04.890Z,33.70
2018-04-29T07:45:33.175Z,33.20
2018-04-29T07:48:01.466Z,32.90
2018-04-29T07:50:28.987Z,32.90
2018-04-29T07:52:56.535Z,32.70
2018-04-29T07:55:24.106Z,33.30
2018-04-29T07:57:51.649Z,33.00
2018-04-29T08:00:19.171Z,32.90
2018-04-29T08:02:46.678Z,31.80
2018-04-29T08:05:14.174Z,31.10
2018-04-29T08:07:41.674Z,29.40
2018-04-29T08:10:09.199Z,29.00
2018-04-29T08:12:36.743Z,30.70
2018-04-29T08:15:04.277Z,31.40
2018-04-29T08:17:31.795Z,32.50
2018-04-29T08:19:59.329Z,31.90
2018-04-29T08:22:26.815Z,31.20
2018-04-29T08:24:54.305Z,30.40
2018-04-29T08:27:21.811Z,31.10
2018-04-29T08:29:49.344Z,31.30
2018-04-29T08:32:16.888Z,30.70
2018-04-29T08:34:45.146Z,29.80
2018-04-29T08:37:12.631Z,29.70
2018-04-29T08:39:40.904Z,30.60
2018-04-29T08:42:09.147Z,29.50
2018-04-29T08:44:36.631Z,29.50
2018-04-29T08:47:04.943Z,29.00
2018-04-29T08:49:32.441Z,29.00
2018-04-29T08:51:59.951Z,29.80
2018-04-29T08:54:27.460Z,30.30
2018-04-29T08:56:54.993Z,29.50
2018-04-29T08:59:22.492Z,27.90
2018-04-29T09:01:50.781Z,25.70
2018-04-29T09:04:18.353Z,25.60
2018-04-29T09:06:45.841Z,24.90
2018-04-29T09:09:13.331Z,23.80
2018-04-29T09:11:40.845Z,23.20
2018-04-29T09:14:08.349Z,22.60
2018-04-29T09:16:35.883Z,22.10
2018-04-29T09:19:03.402Z,22.00
2018-04-29T09:21:30.959Z,21.80
2018-04-29T09:23:58.480Z,21.80
2018-04-29T09:26:25.991Z,21.80
2018-04-29T09:28:53.529Z,21.70
2018-04-29T09:31:21.817Z,21.70
2018-04-29T09:33:49.294Z,21.70
2018-04-29T09:36:16.800Z,21.60
2018-04-29T09:38:45.065Z,21.90
2018-04-29T09:41:12.556Z,21.90
2018-04-29T09:43:40.062Z,22.00
2018-04-29T09:46:07.584Z,22.00
2018-04-29T09:48:35.079Z,21.90
2018-04-29T09:51:02.589Z,21.80
2018-04-29T09:53:30.094Z,21.80
2018-04-29T09:55:57.571Z,21.70
2018-04-29T09:58:25.059Z,21.70
2018-04-29T10:00:57.566Z,21.70
2018-04-29T10:03:25.031Z,21.80
2018-04-29T10:05:52.507Z,21.80
2018-04-29T10:08:20.048Z,21.80
2018-04-29T10:10:47.598Z,22.00
2018-04-29T10:13:15.072Z,22.20
2018-04-29T10:15:42.594Z,22.00
2018-04-29T10:18:10.096Z,21.80
2018-04-29T10:20:37.605Z,21.80
2018-04-29T10:23:05.095Z,21.70
2018-04-29T10:25:32.626Z,21.60
2018-04-29T10:28:00.110Z,21.60
2018-04-29T10:30:27.620Z,21.50
2018-04-29T10:32:55.220Z,21.60
2018-04-29T10:35:22.682Z,21.70
2018-04-29T10:37:50.146Z,21.80
2018-04-29T10:40:17.677Z,21.80
2018-04-29T10:42:45.199Z,22.00
2018-04-29T10:45:13.588Z,22.00
2018-04-29T10:47:41.113Z,22.10
2018-04-29T10:50:08.664Z,22.20
2018-04-29T10:52:36.268Z,22.20
2018-04-29T10:55:03.739Z,22.30
2018-04-29T10:57:31.256Z,22.50
2018-04-29T10:59:58.758Z,22.60
2018-04-29T11:02:26.246Z,22.60
2018-04-29T11:04:53.730Z,22.70
2018-04-29T11:07:22.027Z,22.40
2018-04-29T11:09:49.594Z,22.40
2018-04-29T11:12:17.104Z,22.40
2018-04-29T11:14:44.631Z,22.30
2018-04-29T11:17:12.135Z,22.20
2018-04-29T11:19:40.435Z,22.20
2018-04-29T11:22:08.826Z,22.30
2018-04-29T11:24:36.225Z,22.30
2018-04-29T11:27:03.720Z,22.30
2018-04-29T11:29:31.986Z,22.40
2018-04-29T11:32:00.272Z,22.50
2018-04-29T11:34:28.526Z,22.40
2018-04-29T11:36:56.165Z,22.40
2018-04-29T11:39:24.361Z,22.40
2018-04-29T11:41:51.880Z,22.30
2018-04-29T11:44:19.399Z,22.30
2018-04-29T11:46:46.891Z,22.40
2018-04-29T11:49:14.382Z,22.40
2018-04-29T11:51:41.933Z,22.30
2018-04-29T11:54:09.529Z,22.30
2018-04-29T11:56:37.819Z,22.40
2018-04-29T11:59:05.340Z,22.30
2018-04-29T12:01:32.842Z,22.40
2018-04-29T12:04:00.377Z,22.40
2018-04-29T12:06:28.629Z,22.50
2018-04-29T12:08:56.177Z,22.50
2018-04-29T12:11:23.716Z,22.50
2018-04-29T12:13:51.271Z,22.50
2018-04-29T12:16:18.809Z,22.60
2018-04-29T12:18:46.336Z,22.60
2018-04-29T12:21:14.641Z,22.70
2018-04-29T12:23:42.189Z,22.70
2018-04-29T12:26:10.519Z,22.70
2018-04-29T12:28:38.070Z,22.70
2018-04-29T12:31:05.600Z,22.80
2018-04-29T12:33:33.105Z,22.90
2018-04-29T12:36:00.664Z,22.90
2018-04-29T12:38:28.191Z,22.90
2018-04-29T12:40:55.696Z,22.90
2018-04-29T12:43:23.198Z,23.00
2018-04-29T12:45:50.708Z,23.10
2018-04-29T12:48:18.228Z,23.00
2018-04-29T12:50:45.762Z,23.10
2018-04-29T12:53:13.237Z,23.20
2018-04-29T12:55:40.726Z,23.10
2018-04-29T12:58:08.247Z,23.20
2018-04-29T13:00:35.801Z,23.30
2018-04-29T13:03:03.340Z,23.30
2018-04-29T13:05:30.825Z,23.40
2018-04-29T13:07:58.313Z,23.40
2018-04-29T13:10:25.803Z,23.50
2018-04-29T13:12:54.057Z,23.60
2018-04-29T13:15:21.561Z,23.60
2018-04-29T13:17:49.070Z,23.80
2018-04-29T13:20:16.573Z,23.80
2018-04-29T13:22:44.108Z,23.70
2018-04-29T13:25:12.386Z,23.90
2018-04-29T13:27:40.628Z,24.00
2018-04-29T13:30:08.152Z,24.00
2018-04-29T13:32:35.696Z,24.10
2018-04-29T13:35:03.219Z,24.30
2018-04-29T13:37:30.753Z,24.20
2018-04-29T13:39:58.258Z,24.20
2018-04-29T13:42:26.595Z,24.10
2018-04-29T13:44:54.045Z,24.10
2018-04-29T13:47:21.560Z,24.20
2018-04-29T13:49:49.124Z,24.10
2018-04-29T13:52:16.703Z,24.00
2018-04-29T13:54:44.255Z,23.90
2018-04-29T13:57:11.740Z,23.80
2018-04-29T13:59:39.295Z,23.90
2018-04-29T14:02:06.863Z,24.10
2018-04-29T14:04:34.342Z,24.10
2018-04-29T14:07:02.651Z,24.20
2018-04-29T14:09:30.194Z,24.20
2018-04-29T14:11:57.759Z,24.30
2018-04-29T14:14:25.224Z,24.30
2018-04-29T14:16:52.759Z,24.20
2018-04-29T14:19:21.019Z,24.10
2018-04-29T14:21:48.576Z,24.00
2018-04-29T14:24:16.087Z,24.00
2018-04-29T14:26:43.732Z,23.90
2018-04-29T14:29:11.306Z,23.70
2018-04-29T14:31:38.806Z,23.60
2018-04-29T14:34:06.370Z,23.50
2018-04-29T14:36:33.906Z,23.50
2018-04-29T14:39:01.380Z,23.50
2018-04-29T14:41:28.948Z,23.50
2018-04-29T14:43:56.466Z,23.50
2018-04-29T14:46:23.973Z,23.50
2018-04-29T14:48:52.267Z,23.40
2018-04-29T14:51:19.808Z,23.40
2018-04-29T14:53:48.134Z,23.40
2018-04-29T14:56:15.634Z,23.40
2018-04-29T14:58:43.937Z,23.50
2018-04-29T15:01:11.448Z,23.50
2018-04-29T15:03:38.992Z,23.40
2018-04-29T15:06:06.546Z,23.30
2018-04-29T15:08:34.029Z,23.30
2018-04-29T15:11:01.548Z,23.10
2018-04-29T15:13:29.059Z,23.00
2018-04-29T15:15:57.336Z,22.70
2018-04-29T15:18:37.351Z,22.70
2018-04-29T15:21:04.905Z,22.70
2018-04-29T15:23:32.404Z,22.80
2018-04-29T15:26:00.683Z,23.10
2018-04-29T15:28:29.009Z,23.20
2018-04-29T15:30:56.490Z,23.20
2018-04-29T15:33:24.000Z,23.30
2018-04-29T15:35:51.471Z,23.30
2018-04-29T15:38:19.012Z,23.20
2018-04-29T15:40:46.490Z,23.10
2018-04-29T15:43:14.023Z,22.90
2018-04-29T15:45:41.503Z,22.60
2018-04-29T15:48:09.042Z,22.40
2018-04-29T15:50:36.526Z,22.20
2018-04-29T15:53:04.074Z,22.00
2018-04-29T15:55:31.587Z,22.00
2018-04-29T15:57:59.114Z,22.00
2018-04-29T16:00:26.607Z,22.00
2018-04-29T16:02:54.867Z,21.90
2018-04-29T16:05:22.391Z,21.90
2018-04-29T16:07:49.890Z,21.80
2018-04-29T16:10:17.364Z,21.70
2018-04-29T16:12:45.649Z,21.70
2018-04-29T16:15:13.894Z,21.60
2018-04-29T16:17:41.420Z,21.60
2018-04-29T16:20:08.979Z,21.60
2018-04-29T16:22:36.464Z,21.50
2018-04-29T16:25:03.973Z,21.50
2018-04-29T16:27:31.472Z,21.60
2018-04-29T16:29:58.952Z,21.50
2018-04-29T16:32:28.127Z,21.50
2018-04-29T16:34:55.664Z,21.40
2018-04-29T16:37:23.142Z,21.40
2018-04-29T16:39:51.411Z,21.50
2018-04-29T16:42:18.934Z,21.50
2018-04-29T16:44:46.474Z,21.40
2018-04-29T16:47:14.752Z,21.10
2018-04-29T16:49:43.036Z,21.00
2018-04-29T16:52:10.548Z,21.00
2018-04-29T16:54:38.089Z,20.90
2018-04-29T16:57:05.544Z,20.80
2018-04-29T16:59:33.027Z,20.70
2018-04-29T17:02:00.503Z,20.70
2018-04-29T17:04:28.828Z,20.40
2018-04-29T17:06:56.311Z,20.40
2018-04-29T17:09:23.844Z,20.40
2018-04-29T17:11:51.375Z,20.30
2018-04-29T17:14:18.947Z,20.20
2018-04-29T17:16:46.500Z,20.10
2018-04-29T17:19:13.982Z,20.10
2018-04-29T17:21:41.467Z,20.00
2018-04-29T17:24:08.976Z,19.90
2018-04-29T17:26:36.471Z,19.90
2018-04-29T17:29:03.981Z,19.90
2018-04-29T17:31:31.468Z,19.80
2018-04-29T17:33:58.954Z,19.80
2018-04-29T17:36:26.488Z,19.70
2018-04-29T17:38:53.999Z,19.70
2018-04-29T17:41:22.266Z,19.60
2018-04-29T17:43:50.533Z,19.50
2018-04-29T17:46:18.811Z,19.40
2018-04-29T17:48:47.084Z,19.30
2018-04-29T17:51:15.383Z,19.30
2018-04-29T17:53:42.866Z,19.30
2018-04-29T17:56:10.430Z,19.30
2018-04-29T17:58:37.850Z,19.20
2018-04-29T18:01:06.191Z,19.00
2018-04-29T18:03:33.652Z,19.00
2018-04-29T18:06:01.920Z,18.80
2018-04-29T18:08:29.449Z,18.80
2018-04-29T18:10:56.982Z,18.80
2018-04-29T18:13:24.470Z,18.80
2018-04-29T18:15:52.008Z,18.70
2018-04-29T18:18:19.483Z,18.60
2018-04-29T18:20:47.000Z,18.50
2018-04-29T18:23:14.484Z,18.50
2018-04-29T18:25:41.996Z,18.40
2018-04-29T18:28:09.509Z,18.40
2018-04-29T18:30:37.039Z,18.30
2018-04-29T18:33:05.398Z,18.20
2018-04-29T18:35:33.702Z,18.00
2018-04-29T18:38:01.201Z,18.00
2018-04-29T18:40:28.690Z,18.00
2018-04-29T18:42:56.323Z,18.00
2018-04-29T18:45:24.594Z,17.90
2018-04-29T18:47:52.098Z,18.00
2018-04-29T18:50:20.458Z,17.80
2018-04-29T18:52:47.884Z,17.80
2018-04-29T18:55:15.449Z,17.60
2018-04-29T18:57:42.991Z,17.50
2018-04-29T19:00:10.545Z,17.30
2018-04-29T19:02:38.064Z,17.20
2018-04-29T19:05:06.352Z,16.90
2018-04-29T19:07:33.916Z,16.90
2018-04-29T19:10:01.576Z,16.70
2018-04-29T19:12:29.120Z,16.70
2018-04-29T19:14:57.409Z,16.50
2018-04-29T19:17:24.950Z,16.50
2018-04-29T19:19:53.187Z,16.40
2018-04-29T19:22:20.699Z,16.40
2018-04-29T19:24:48.223Z,16.30
2018-04-29T19:27:15.814Z,16.30
2018-04-29T19:29:43.316Z,16.30
2018-04-29T19:32:10.806Z,16.20
2018-04-29T19:34:39.053Z,16.10
2018-04-29T19:37:06.564Z,16.10
2018-04-29T19:39:34.026Z,16.20
2018-04-29T19:42:01.550Z,16.30
2018-04-29T19:44:29.040Z,16.30
2018-04-29T19:46:56.568Z,16.30
2018-04-29T19:49:24.071Z,16.40
2018-04-29T19:51:51.551Z,16.50
2018-04-29T19:54:19.030Z,16.40
2018-04-29T19:56:46.525Z,16.30
2018-04-29T19:59:14.036Z,16.10
2018-04-29T20:01:41.559Z,16.00
2018-04-29T20:04:09.031Z,15.90
2018-04-29T20:06:36.546Z,15.80
2018-04-29T20:09:05.069Z,15.50
2018-04-29T20:11:32.670Z,15.50
2018-04-29T20:14:00.117Z,15.30
2018-04-29T20:16:27.594Z,15.20
2018-04-29T20:18:55.840Z,14.80
2018-04-29T20:21:23.352Z,14.80
2018-04-29T20:23:50.910Z,14.70
2018-04-29T20:26:18.380Z,14.50
2018-04-29T20:28:45.871Z,14.50
2018-04-29T20:31:13.372Z,14.40
2018-04-29T20:33:40.897Z,14.50
2018-04-29T20:36:08.374Z,14.50
2018-04-29T20:38:36.659Z,14.50
2018-04-29T20:41:04.932Z,14.40
2018-04-29T20:43:33.190Z,14.30
2018-04-29T20:46:01.432Z,14.30
2018-04-29T20:48:28.933Z,14.30
2018-04-29T20:50:57.235Z,14.30
2018-04-29T20:53:24.766Z,14.30
2018-04-29T20:55:53.043Z,14.40
2018-04-29T20:58:21.353Z,14.40
2018-04-29T21:00:48.834Z,14.40
2018-04-29T21:03:16.369Z,14.10
2018-04-29T21:05:43.894Z,14.10
2018-04-29T21:08:11.388Z,13.80
2018-04-29T21:10:38.874Z,13.90
2018-04-29T21:13:06.389Z,13.90
2018-04-29T21:15:34.627Z,13.90
2018-04-29T21:18:02.116Z,13.90
2018-04-29T21:20:29.631Z,13.80
2018-04-29T21:22:57.151Z,13.80
2018-04-29T21:25:24.651Z,13.70
2018-04-29T21:27:52.174Z,13.60
2018-04-29T21:30:19.668Z,13.50
2018-04-29T21:32:47.163Z,13.40
2018-04-29T21:35:14.672Z,13.20
2018-04-29T21:37:42.184Z,13.10
2018-04-29T21:40:09.665Z,13.00
2018-04-29T21:42:37.184Z,13.00
2018-04-29T21:45:04.707Z,13.10
2018-04-29T21:47:32.250Z,13.00
2018-04-29T21:49:59.776Z,12.80
2018-04-29T21:52:27.296Z,12.80
2018-04-29T21:54:54.820Z,12.80
2018-04-29T21:57:22.285Z,12.80
2018-04-29T21:59:49.812Z,12.70
2018-04-29T22:02:17.321Z,12.70
2018-04-29T22:04:44.794Z,12.70
2018-04-29T22:07:13.043Z,12.70
2018-04-29T22:09:40.558Z,12.70
2018-04-29T22:12:08.029Z,12.70
2018-04-29T22:14:35.526Z,12.80
2018-04-29T22:17:02.994Z,12.80
2018-04-29T22:19:31.317Z,13.00
2018-04-29T22:21:58.836Z,12.90
2018-04-29T22:24:27.078Z,12.90
2018-04-29T22:26:54.593Z,12.90
2018-04-29T22:29:22.112Z,12.80
2018-04-29T22:31:49.617Z,12.70
2018-04-29T22:34:17.115Z,12.90
2018-04-29T22:36:44.598Z,12.90
2018-04-29T22:39:12.884Z,12.80
2018-04-29T22:41:41.161Z,12.80
2018-04-29T22:44:08.642Z,12.80
2018-04-29T22:46:36.114Z,12.80
2018-04-29T22:49:03.614Z,12.80
2018-04-29T22:51:31.885Z,13.00
2018-04-29T22:54:00.181Z,13.50
2018-04-29T22:56:28.462Z,13.70
2018-04-29T22:58:56.697Z,13.80
2018-04-29T23:01:24.171Z,13.80
2018-04-29T23:03:52.544Z,14.00
2018-04-29T23:06:20.012Z,14.00
2018-04-29T23:08:48.258Z,14.00
2018-04-29T23:11:15.768Z,14.00
2018-04-29T23:13:43.262Z,13.90
2018-04-29T23:16:10.750Z,13.80
2018-04-29T23:18:38.256Z,13.70
2018-04-29T23:21:05.739Z,13.70
2018-04-29T23:23:33.261Z,13.50
2018-04-29T23:26:00.786Z,13.30
2018-04-29T23:28:28.254Z,13.20
2018-04-29T23:30:56.538Z,13.10
2018-04-29T23:33:24.767Z,13.00
2018-04-29T23:35:52.256Z,13.00
2018-04-29T23:38:20.541Z,12.90
2018-04-29T23:40:48.802Z,12.70
2018-04-29T23:43:17.077Z,12.60
2018-04-29T23:45:44.597Z,12.60
2018-04-29T23:48:12.073Z,12.60
2018-04-29T23:50:39.564Z,12.70
2018-04-29T23:53:07.837Z,12.70
2018-04-29T23:55:36.123Z,12.60
2018-04-29T23:58:04.401Z,12.60
